Aircraft
UPR1037 PR-BAC B737-800
SBFL
Hercílio Luz International Airport
SBCT
Afonso Pena Airport
Pilot:: Klebson
Aircraft:: Lockheed C-130 (Capt Sim)
Alternate: SBGR
Network: ivao
FLIGHT DETAILS
Distance: 133nm Duration 00h 12m
Cruise Speed: Flight Level: 19000
Validation: Validated Type Charter
Flight Fuel
ZFW: 50132
Block Fuel/Initial FOB: 10662
Flight Fuel: 3193
Cargo
Passengers: 119
Cargo: 2969
ROUTE
ROUTE: ORIR1A BITAK UN857 EGDED EGDE1B
REMARKS:
DATE
Date: 26-08-13
Departure Time: 1710
Cargo: 2969
FLIGHT DETAILS
Crashed: No
Validator Comments: Validado por Rafael
Flight Rating: 99
LANDING ANALYSIS
Landing wind: 271º/1 kt
Landing heading: 336º
Landing VS:: -161 ft/min
Landing IAS:: 134 kt
Landing Force G: 1 G
Landing Bank: 0
Landing Pitch: -4
Landing Flaps: 100
Navigation Lights: ON
Landing Lights: ON
Beacon Lights: ON
Strobe Lights: ON
viserfly

ALTITUDE CHART

viserfly

MAIN EVENTS

DATE EVENT IAS ALTITUDE
2026-08-13 17:03:48 FLYacars version 1.3.6 0 22
2026-08-13 17:03:48 Aircraft boarding in progress 0 22
2026-08-13 17:03:48 FLAPS 37% 0 22
2026-08-13 17:09:57 Aircraft taxiing to runway 5 23
2026-08-13 17:10:29 Detected Take-off roll, HDG 314, IAS 156kt, GS 159kt, G-force 1.0g, Pitch -10.0deg, Bank -0.5deg, Wind 270/01kt, Temp 14°C 156 28
2026-08-13 17:10:29 Airborne 156 28
2026-08-13 17:10:33 Gear UP, IAS 164kt, GS 166kt, ALT 53ft AGL 164 68
2026-08-13 17:11:01 FLAPS 25% 189kt, ALT 1300ft 189 1300
2026-08-13 17:11:03 FLAPS 12% 185kt, ALT 1574ft 185 1574
2026-08-13 17:11:07 FLAPS 0% 183kt, ALT 2065ft 183 2065
2026-08-13 17:13:18 Landing lights ON above 10000fts 297 11004
2026-08-13 17:21:10 Gear DOWN, IAS 256kt, GS 291kt, ALT 4781ft AGL 256 7978
2026-08-13 17:21:14 FLAPS 12% 254kt, ALT 7719ft 254 7719
2026-08-13 17:21:19 FLAPS 25% 247kt, ALT 7450ft 247 7450
2026-08-13 17:21:20 FLAPS 37% 243kt, ALT 7338ft 243 7338
2026-08-13 17:21:22 FLAPS 50% 239kt, ALT 7212ft 239 7212
2026-08-13 17:21:26 FLAPS 62% 234kt, ALT 6955ft 234 6955
2026-08-13 17:21:27 FLAPS 75% 233kt, ALT 6854ft 233 6854
2026-08-13 17:21:29 FLAPS 87% 232kt, ALT 6711ft 232 6711
2026-08-13 17:22:16 FLAPS 100% 154kt, ALT 3873ft 154 3873
2026-08-13 17:23:08 Landed at destination with a landing rate of -161fpm, G-force 1.0g, Pitch -4.4deg, Bank 0.3deg, HDG 336deg, IAS 134kt, GS 142kt, Wind 271/01kt, Temp 15°C 134 2990
2026-08-13 17:23:22 Aircraft taxiing to apron 25 2979
2026-08-13 17:23:35 Aircraft at gate/stand, ground services are moving into position, disembarkation has begun. Remaining FOB 7469kg FLYacars v1.3.6 0 2979
viserfly

ACARS DATA

DATE IAS GS ALTITUDE FUEL CONSUMED OAT FLIGHT STATUS
2026-08-13 17:04:18 0 0 23 78 14 BOARDING
2026-08-13 17:04:48 0 0 23 83 14 BOARDING
2026-08-13 17:05:18 0 0 23 1171 14 BOARDING
2026-08-13 17:05:48 0 0 23 1176 14 BOARDING
2026-08-13 17:06:18 0 0 23 1182 14 BOARDING
2026-08-13 17:06:48 0 0 23 1187 14 BOARDING
2026-08-13 17:07:18 0 0 23 1193 14 BOARDING
2026-08-13 17:07:48 0 0 23 1199 14 BOARDING
2026-08-13 17:08:18 0 0 23 1204 14 BOARDING
2026-08-13 17:08:48 0 0 23 1210 14 BOARDING
2026-08-13 17:09:18 0 0 23 1215 14 BOARDING
2026-08-13 17:09:48 0 0 23 1221 14 BOARDING
2026-08-13 17:10:18 110 111 20 1279 14 TAKEOFF
2026-08-13 17:10:48 178 178 660 1391 13 TAKEOFF
2026-08-13 17:11:18 202 209 2666 1539 9 CLIMB
2026-08-13 17:11:48 248 262 4459 1675 6 CLIMB
2026-08-13 17:12:18 249 275 7239 1801 2 CLIMB
2026-08-13 17:12:48 250 287 9839 1921 -4 CLIMB
2026-08-13 17:13:18 296 348 10984 2034 -4 CLIMB
2026-08-13 17:13:48 307 370 12839 2140 -8 CLIMB
2026-08-13 17:14:18 313 377 13005 2201 -10 ENROUTE
2026-08-13 17:14:48 305 368 13008 2245 -9 ENROUTE
2026-08-13 17:15:18 312 375 13014 2300 -10 ENROUTE
2026-08-13 17:15:48 304 366 13003 2343 -10 ENROUTE
2026-08-13 17:16:18 307 370 13024 2396 -10 ENROUTE
2026-08-13 17:16:48 311 375 13010 2450 -9 ENROUTE
2026-08-13 17:17:18 299 355 12075 2478 -7 DESCENT
2026-08-13 17:17:48 262 308 10959 2494 -6 DESCENT
2026-08-13 17:18:18 233 271 10158 2510 -5 DESCENT
2026-08-13 17:18:48 223 258 9631 2539 -4 ENROUTE
2026-08-13 17:19:18 254 292 9323 2645 -2 DESCENT
2026-08-13 17:19:48 233 268 8917 2731 0 ENROUTE
2026-08-13 17:20:18 247 286 9077 2860 4 ENROUTE
2026-08-13 17:20:48 239 276 8941 2963 2 ENROUTE
2026-08-13 17:21:18 249 280 7517 3034 6 DESCENT
2026-08-13 17:21:48 214 231 5267 3050 10 APPROACH
2026-08-13 17:22:18 152 162 3837 3066 13 ON FINAL
2026-08-13 17:22:48 135 143 3259 3132 14 ON FINAL
2026-08-13 17:23:18 72 74 2980 3174 15 ON FINAL
  • Join our VA!

    It has been 11 years of great learning, friendships, and stories.

  • Sign up now!